sensor_id;sensor_type;location;lat;lon;timestamp;pressure;altitude;pressure_sealevel;temperature;humidity
74637;BME280;63141;54.616;39.754;2023-05-18T00:02:43;100797.91;;;20.59;48.69
74637;BME280;63141;54.616;39.754;2023-05-18T00:05:44;100789.06;;;20.59;48.39
74637;BME280;63141;54.616;39.754;2023-05-18T00:08:49;100793.50;;;20.58;48.44
74637;BME280;63141;54.616;39.754;2023-05-18T00:11:51;100796.19;;;20.57;48.56
74637;BME280;63141;54.616;39.754;2023-05-18T00:14:52;100790.88;;;20.57;48.55
74637;BME280;63141;54.616;39.754;2023-05-18T00:17:54;100793.53;;;20.57;48.56
74637;BME280;63141;54.616;39.754;2023-05-18T00:20:57;100796.19;;;20.57;48.63
74637;BME280;63141;54.616;39.754;2023-05-18T00:24:02;100794.41;;;20.56;48.59
74637;BME280;63141;54.616;39.754;2023-05-18T00:27:03;100797.97;;;20.56;48.49
74637;BME280;63141;54.616;39.754;2023-05-18T00:30:05;100799.72;;;20.56;48.69
74637;BME280;63141;54.616;39.754;2023-05-18T00:33:06;100801.47;;;20.57;48.60
74637;BME280;63141;54.616;39.754;2023-05-18T00:36:10;100797.06;;;20.56;48.57
74637;BME280;63141;54.616;39.754;2023-05-18T00:39:11;100799.72;;;20.56;48.59
74637;BME280;63141;54.616;39.754;2023-05-18T00:42:14;100800.59;;;20.56;48.45
74637;BME280;63141;54.616;39.754;2023-05-18T00:45:15;100799.72;;;20.56;48.69
74637;BME280;63141;54.616;39.754;2023-05-18T00:48:17;100793.56;;;20.55;48.44
74637;BME280;63141;54.616;39.754;2023-05-18T00:51:19;100790.91;;;20.55;48.63
74637;BME280;63141;54.616;39.754;2023-05-18T00:54:23;100792.66;;;20.55;48.63
74637;BME280;63141;54.616;39.754;2023-05-18T00:57:25;100785.63;;;20.54;48.40
74637;BME280;63141;54.616;39.754;2023-05-18T01:00:28;100797.09;;;20.54;48.54
74637;BME280;63141;54.616;39.754;2023-05-18T01:03:36;100799.72;;;20.56;48.78
74637;BME280;63141;54.616;39.754;2023-05-18T01:06:39;100794.41;;;20.56;48.56
74637;BME280;63141;54.616;39.754;2023-05-18T01:09:41;100788.25;;;20.55;48.50
74637;BME280;63141;54.616;39.754;2023-05-18T01:12:56;100790.94;;;20.54;48.73
74637;BME280;63141;54.616;39.754;2023-05-18T01:16:00;100789.22;;;20.53;48.72
74637;BME280;63141;54.616;39.754;2023-05-18T01:19:26;100782.13;;;20.53;48.81
74637;BME280;63141;54.616;39.754;2023-05-18T01:28:59;100797.16;;;20.53;48.78
74637;BME280;63141;54.616;39.754;2023-05-18T01:32:06;100806.84;;;20.52;48.60
74637;BME280;63141;54.616;39.754;2023-05-18T01:35:12;100799.81;;;20.51;48.76
74637;BME280;63141;54.616;39.754;2023-05-18T01:38:20;100794.53;;;20.51;48.70
74637;BME280;63141;54.616;39.754;2023-05-18T01:41:29;100797.19;;;20.49;48.57
74637;BME280;63141;54.616;39.754;2023-05-18T01:44:52;100801.59;;;20.50;48.52
74637;BME280;63141;54.616;39.754;2023-05-18T01:48:01;100804.25;;;20.49;48.75
74637;BME280;63141;54.616;39.754;2023-05-18T01:51:03;100801.59;;;20.50;48.82
74637;BME280;63141;54.616;39.754;2023-05-18T01:54:07;100804.25;;;20.49;48.66
74637;BME280;63141;54.616;39.754;2023-05-18T01:57:12;100809.56;;;20.49;48.88
74637;BME280;63141;54.616;39.754;2023-05-18T02:00:14;100808.69;;;20.48;48.83
74637;BME280;63141;54.616;39.754;2023-05-18T02:03:23;100804.28;;;20.47;48.79
74637;BME280;63141;54.616;39.754;2023-05-18T02:06:24;100802.56;;;20.46;48.78
74637;BME280;63141;54.616;39.754;2023-05-18T02:09:26;100814.00;;;20.48;48.79
74637;BME280;63141;54.616;39.754;2023-05-18T02:12:27;100806.94;;;20.47;48.79
74637;BME280;63141;54.616;39.754;2023-05-18T02:15:28;100813.13;;;20.48;48.82
74637;BME280;63141;54.616;39.754;2023-05-18T02:18:30;100814.88;;;20.47;48.60
74637;BME280;63141;54.616;39.754;2023-05-18T02:21:34;100813.13;;;20.48;48.95
74637;BME280;63141;54.616;39.754;2023-05-18T02:24:37;100821.94;;;20.48;48.91
74637;BME280;63141;54.616;39.754;2023-05-18T02:27:39;100810.50;;;20.46;49.15
74637;BME280;63141;54.616;39.754;2023-05-18T02:30:40;100822.81;;;20.47;49.00
74637;BME280;63141;54.616;39.754;2023-05-18T02:33:42;100818.44;;;20.46;48.79
74637;BME280;63141;54.616;39.754;2023-05-18T02:36:43;100814.03;;;20.45;48.83
74637;BME280;63141;54.616;39.754;2023-05-18T02:39:46;100822.88;;;20.46;48.92
74637;BME280;63141;54.616;39.754;2023-05-18T02:42:47;100819.31;;;20.45;48.92
74637;BME280;63141;54.616;39.754;2023-05-18T02:45:49;100814.94;;;20.46;49.00
74637;BME280;63141;54.616;39.754;2023-05-18T02:48:51;100819.31;;;20.45;49.12
74637;BME280;63141;54.616;39.754;2023-05-18T02:51:55;100818.44;;;20.46;48.77
74637;BME280;63141;54.616;39.754;2023-05-18T02:54:56;100817.59;;;20.44;48.58
74637;BME280;63141;54.616;39.754;2023-05-18T02:58:17;100817.59;;;20.44;48.48
74637;BME280;63141;54.616;39.754;2023-05-18T03:01:44;100823.75;;;20.45;48.51
74637;BME280;63141;54.616;39.754;2023-05-18T03:04:45;100815.88;;;20.43;48.76
74637;BME280;63141;54.616;39.754;2023-05-18T03:07:54;100821.16;;;20.43;48.92
74637;BME280;63141;54.616;39.754;2023-05-18T03:10:57;100822.03;;;20.44;48.79
74637;BME280;63141;54.616;39.754;2023-05-18T03:13:58;100825.56;;;20.43;48.75
74637;BME280;63141;54.616;39.754;2023-05-18T03:17:00;100828.22;;;20.43;48.71
74637;BME280;63141;54.616;39.754;2023-05-18T03:20:01;100829.09;;;20.43;48.65
74637;BME280;63141;54.616;39.754;2023-05-18T03:23:04;100827.34;;;20.42;48.39
74637;BME280;63141;54.616;39.754;2023-05-18T03:26:07;100824.69;;;20.42;48.61
74637;BME280;63141;54.616;39.754;2023-05-18T03:29:11;100832.63;;;20.42;48.60
74637;BME280;63141;54.616;39.754;2023-05-18T03:32:14;100828.25;;;20.41;48.59
74637;BME280;63141;54.616;39.754;2023-05-18T03:35:16;100825.63;;;20.41;48.47
74637;BME280;63141;54.616;39.754;2023-05-18T03:38:17;100832.63;;;20.44;48.92
74637;BME280;63141;54.616;39.754;2023-05-18T03:41:29;100836.13;;;20.44;49.88
74637;BME280;63141;54.616;39.754;2023-05-18T03:44:31;100833.44;;;20.46;50.01
74637;BME280;63141;54.616;39.754;2023-05-18T03:47:37;100832.53;;;20.47;50.22
74637;BME280;63141;54.616;39.754;2023-05-18T03:50:39;100839.59;;;20.48;50.45
74637;BME280;63141;54.616;39.754;2023-05-18T03:53:41;100840.44;;;20.48;50.46
74637;BME280;63141;54.616;39.754;2023-05-18T03:56:43;100836.88;;;20.49;50.56
74637;BME280;63141;54.616;39.754;2023-05-18T03:59:44;100835.16;;;20.48;50.31
74637;BME280;63141;54.616;39.754;2023-05-18T04:02:48;100837.81;;;20.47;50.06
74637;BME280;63141;54.616;39.754;2023-05-18T04:05:58;100836.97;;;20.46;50.21
74637;BME280;63141;54.616;39.754;2023-05-18T04:09:06;100836.09;;;20.46;50.08
74637;BME280;63141;54.616;39.754;2023-05-18T04:12:07;100844.03;;;20.46;50.07
74637;BME280;63141;54.616;39.754;2023-05-18T04:15:09;100842.25;;;20.46;50.01
74637;BME280;63141;54.616;39.754;2023-05-18T04:18:17;100842.25;;;20.46;50.49
74637;BME280;63141;54.616;39.754;2023-05-18T04:21:21;100836.03;;;20.47;50.67
74637;BME280;63141;54.616;39.754;2023-05-18T04:24:23;100841.31;;;20.49;51.21
74637;BME280;63141;54.616;39.754;2023-05-18T04:27:30;100845.75;;;20.48;51.39
74637;BME280;63141;54.616;39.754;2023-05-18T04:30:31;100845.75;;;20.48;50.66
74637;BME280;63141;54.616;39.754;2023-05-18T04:33:32;100844.81;;;20.49;50.31
74637;BME280;63141;54.616;39.754;2023-05-18T04:36:34;100843.94;;;20.50;50.19
74637;BME280;63141;54.616;39.754;2023-05-18T04:39:40;100852.72;;;20.53;49.97
74637;BME280;63141;54.616;39.754;2023-05-18T04:42:45;100843.84;;;20.54;49.80
74637;BME280;63141;54.616;39.754;2023-05-18T04:45:48;100849.16;;;20.54;49.66
74637;BME280;63141;54.616;39.754;2023-05-18T04:48:54;100844.78;;;20.53;49.58
74637;BME280;63141;54.616;39.754;2023-05-18T04:51:57;100846.47;;;20.57;49.44
74637;BME280;63141;54.616;39.754;2023-05-18T04:55:03;100843.81;;;20.57;49.25
74637;BME280;63141;54.616;39.754;2023-05-18T04:58:04;100841.16;;;20.57;48.99
74637;BME280;63141;54.616;39.754;2023-05-18T05:01:09;100844.72;;;20.57;48.93
74637;BME280;63141;54.616;39.754;2023-05-18T05:04:19;100841.16;;;20.57;48.73
74637;BME280;63141;54.616;39.754;2023-05-18T05:07:20;100849.09;;;20.58;48.67
74637;BME280;63141;54.616;39.754;2023-05-18T05:10:22;100840.28;;;20.58;48.50
74637;BME280;63141;54.616;39.754;2023-05-18T05:13:26;100836.72;;;20.59;48.60
74637;BME280;63141;54.616;39.754;2023-05-18T05:16:28;100838.47;;;20.60;48.19
74637;BME280;63141;54.616;39.754;2023-05-18T05:19:29;100833.19;;;20.60;48.07
74637;BME280;63141;54.616;39.754;2023-05-18T05:22:31;100841.03;;;20.63;48.24
74637;BME280;63141;54.616;39.754;2023-05-18T05:25:38;100838.38;;;20.63;48.04
74637;BME280;63141;54.616;39.754;2023-05-18T05:28:40;100840.16;;;20.64;47.77
74637;BME280;63141;54.616;39.754;2023-05-18T05:31:41;100836.59;;;20.65;47.61
74637;BME280;63141;54.616;39.754;2023-05-18T05:34:45;100833.00;;;20.66;47.56
74637;BME280;63141;54.616;39.754;2023-05-18T05:37:50;100835.63;;;20.67;47.71
74637;BME280;63141;54.616;39.754;2023-05-18T05:40:54;100836.50;;;20.68;47.49
74637;BME280;63141;54.616;39.754;2023-05-18T05:43:56;100835.56;;;20.70;47.55
74637;BME280;63141;54.616;39.754;2023-05-18T05:46:58;100834.69;;;20.70;47.72
74637;BME280;63141;54.616;39.754;2023-05-18T05:50:02;100833.75;;;20.73;47.70
74637;BME280;63141;54.616;39.754;2023-05-18T05:53:04;100830.22;;;20.74;47.90
74637;BME280;63141;54.616;39.754;2023-05-18T05:56:08;100836.38;;;20.74;47.62
74637;BME280;63141;54.616;39.754;2023-05-18T05:59:16;100832.81;;;20.75;47.30
74637;BME280;63141;54.616;39.754;2023-05-18T06:02:18;100824.84;;;20.77;47.61
74637;BME280;63141;54.616;39.754;2023-05-18T06:05:30;100823.03;;;20.79;47.28
74637;BME280;63141;54.616;39.754;2023-05-18T06:08:34;100823.03;;;20.79;47.48
74637;BME280;63141;54.616;39.754;2023-05-18T06:11:36;100818.59;;;20.79;47.67
74637;BME280;63141;54.616;39.754;2023-05-18T06:14:43;100816.78;;;20.81;47.68
74637;BME280;63141;54.616;39.754;2023-05-18T06:17:50;100815.91;;;20.81;47.28
74637;BME280;63141;54.616;39.754;2023-05-18T06:20:58;100814.13;;;20.81;47.26
74637;BME280;63141;54.616;39.754;2023-05-18T06:24:00;100810.59;;;20.82;47.29
74637;BME280;63141;54.616;39.754;2023-05-18T06:27:27;100815.91;;;20.82;47.34
74637;BME280;63141;54.616;39.754;2023-05-18T06:31:12;100811.41;;;20.84;47.42
74637;BME280;63141;54.616;39.754;2023-05-18T06:34:24;100814.88;;;20.86;47.24
74637;BME280;63141;54.616;39.754;2023-05-18T06:37:31;100816.66;;;20.87;47.39
74637;BME280;63141;54.616;39.754;2023-05-18T06:40:33;100814.00;;;20.87;47.23
74637;BME280;63141;54.616;39.754;2023-05-18T06:43:41;100815.72;;;20.88;47.26
74637;BME280;63141;54.616;39.754;2023-05-18T06:47:20;100816.56;;;20.90;46.87
74637;BME280;63141;54.616;39.754;2023-05-18T06:50:33;100813.03;;;20.91;46.97
74637;BME280;63141;54.616;39.754;2023-05-18T06:53:38;100814.75;;;20.92;46.93
74637;BME280;63141;54.616;39.754;2023-05-18T06:56:48;100818.25;;;20.95;46.63
74637;BME280;63141;54.616;39.754;2023-05-18T07:00:05;100816.44;;;20.97;46.71
74637;BME280;63141;54.616;39.754;2023-05-18T07:03:27;100815.50;;;20.98;46.53
74637;BME280;63141;54.616;39.754;2023-05-18T07:06:32;100818.16;;;20.98;46.27
74637;BME280;63141;54.616;39.754;2023-05-18T07:09:36;100813.69;;;21.00;46.44
74637;BME280;63141;54.616;39.754;2023-05-18T07:12:37;100805.75;;;21.00;46.30
74637;BME280;63141;54.616;39.754;2023-05-18T07:15:39;100806.59;;;21.00;45.95
74637;BME280;63141;54.616;39.754;2023-05-18T07:18:43;100812.81;;;21.01;46.12
74637;BME280;63141;54.616;39.754;2023-05-18T07:21:53;100803.94;;;21.02;46.38
74637;BME280;63141;54.616;39.754;2023-05-18T07:25:06;100805.69;;;21.03;46.02
74637;BME280;63141;54.616;39.754;2023-05-18T07:28:08;100806.50;;;21.05;45.70
74637;BME280;63141;54.616;39.754;2023-05-18T07:31:12;100806.47;;;21.06;45.79
74637;BME280;63141;54.616;39.754;2023-05-18T07:34:16;100807.34;;;21.07;45.45
74637;BME280;63141;54.616;39.754;2023-05-18T07:37:17;100803.78;;;21.08;45.57
74637;BME280;63141;54.616;39.754;2023-05-18T07:40:28;100802.88;;;21.09;45.28
74637;BME280;63141;54.616;39.754;2023-05-18T07:43:37;100805.50;;;21.09;45.08
74637;BME280;63141;54.616;39.754;2023-05-18T07:46:42;100805.50;;;21.10;45.05
74637;BME280;63141;54.616;39.754;2023-05-18T07:49:46;100808.13;;;21.12;45.01
74637;BME280;63141;54.616;39.754;2023-05-18T07:52:57;100807.19;;;21.13;44.57
74637;BME280;63141;54.616;39.754;2023-05-18T07:56:05;100796.59;;;21.13;44.28
74637;BME280;63141;54.616;39.754;2023-05-18T07:59:08;100791.28;;;21.13;44.38
74637;BME280;63141;54.616;39.754;2023-05-18T08:02:12;100791.28;;;21.13;44.43
74637;BME280;63141;54.616;39.754;2023-05-18T08:05:22;100786.91;;;21.12;44.29
74637;BME280;63141;54.616;39.754;2023-05-18T08:08:28;100793.03;;;21.14;44.13
74637;BME280;63141;54.616;39.754;2023-05-18T08:11:32;100783.31;;;21.15;43.91
74637;BME280;63141;54.616;39.754;2023-05-18T08:14:34;100791.22;;;21.16;43.82
74637;BME280;63141;54.616;39.754;2023-05-18T08:17:41;100792.97;;;21.17;43.63
74637;BME280;63141;54.616;39.754;2023-05-18T08:20:47;100786.72;;;21.20;43.61
74637;BME280;63141;54.616;39.754;2023-05-18T08:23:54;100786.72;;;21.20;43.51
74637;BME280;63141;54.616;39.754;2023-05-18T08:26:56;100780.56;;;21.19;43.55
74637;BME280;63141;54.616;39.754;2023-05-18T08:30:00;100781.41;;;21.20;43.67
74637;BME280;63141;54.616;39.754;2023-05-18T08:33:10;100773.50;;;21.18;43.71
74637;BME280;63141;54.616;39.754;2023-05-18T08:36:20;100777.91;;;21.19;43.64
74637;BME280;63141;54.616;39.754;2023-05-18T08:39:21;100771.72;;;21.19;43.47
74637;BME280;63141;54.616;39.754;2023-05-18T08:42:32;100769.97;;;21.19;43.54
74637;BME280;63141;54.616;39.754;2023-05-18T08:48:45;100777.91;;;21.19;43.38
74637;BME280;63141;54.616;39.754;2023-05-18T08:51:55;100771.72;;;21.19;43.27
74637;BME280;63141;54.616;39.754;2023-05-18T08:54:58;100772.53;;;21.21;42.44
74637;BME280;63141;54.616;39.754;2023-05-18T08:58:06;100776.97;;;21.20;42.53
74637;BME280;63141;54.616;39.754;2023-05-18T09:01:13;100771.69;;;21.20;42.53
74637;BME280;63141;54.616;39.754;2023-05-18T09:04:21;100766.38;;;21.20;42.33
74637;BME280;63141;54.616;39.754;2023-05-18T09:07:25;100767.31;;;21.19;42.55
74637;BME280;63141;54.616;39.754;2023-05-18T09:10:34;100762.91;;;21.18;42.37
74637;BME280;63141;54.616;39.754;2023-05-18T09:13:42;100759.41;;;21.16;42.16
74637;BME280;63141;54.616;39.754;2023-05-18T09:16:44;100757.59;;;21.18;42.38
74637;BME280;63141;54.616;39.754;2023-05-18T09:19:48;100747.00;;;21.18;41.92
74637;BME280;63141;54.616;39.754;2023-05-18T09:22:55;100750.56;;;21.17;42.06
74637;BME280;63141;54.616;39.754;2023-05-18T09:25:59;100736.41;;;21.18;42.21
74637;BME280;63141;54.616;39.754;2023-05-18T09:29:01;100737.28;;;21.19;42.08
74637;BME280;63141;54.616;39.754;2023-05-18T09:32:02;100744.31;;;21.20;42.17
74637;BME280;63141;54.616;39.754;2023-05-18T09:35:05;100739.88;;;21.20;42.19
74637;BME280;63141;54.616;39.754;2023-05-18T09:38:07;100737.22;;;21.22;42.00
74637;BME280;63141;54.616;39.754;2023-05-18T09:41:16;100727.47;;;21.22;41.88
74637;BME280;63141;54.616;39.754;2023-05-18T09:44:29;100722.19;;;21.22;41.87
74637;BME280;63141;54.616;39.754;2023-05-18T09:47:32;100722.19;;;21.22;41.77
74637;BME280;63141;54.616;39.754;2023-05-18T09:50:37;100736.34;;;21.21;41.90
74637;BME280;63141;54.616;39.754;2023-05-18T09:53:39;100728.34;;;21.23;41.76
74637;BME280;63141;54.616;39.754;2023-05-18T09:56:40;100717.75;;;21.23;41.70
74637;BME280;63141;54.616;39.754;2023-05-18T09:59:55;100723.88;;;21.25;41.91
74637;BME280;63141;54.616;39.754;2023-05-18T10:03:00;100713.31;;;21.23;41.64
74637;BME280;63141;54.616;39.754;2023-05-18T10:06:09;100714.19;;;21.24;41.49
74637;BME280;63141;54.616;39.754;2023-05-18T10:09:16;100705.34;;;21.23;41.70
74637;BME280;63141;54.616;39.754;2023-05-18T10:12:24;100711.59;;;21.22;41.71
74637;BME280;63141;54.616;39.754;2023-05-18T10:15:29;100701.84;;;21.23;41.72
74637;BME280;63141;54.616;39.754;2023-05-18T10:18:37;100705.34;;;21.23;41.63
74637;BME280;63141;54.616;39.754;2023-05-18T10:21:42;100706.28;;;21.22;41.58
74637;BME280;63141;54.616;39.754;2023-05-18T10:24:49;100702.81;;;21.20;41.89
74637;BME280;63141;54.616;39.754;2023-05-18T10:27:59;100699.25;;;21.21;41.58
74637;BME280;63141;54.616;39.754;2023-05-18T10:31:05;100694.00;;;21.20;41.64
74637;BME280;63141;54.616;39.754;2023-05-18T10:34:11;100701.97;;;21.18;41.69
74637;BME280;63141;54.616;39.754;2023-05-18T10:37:22;100690.53;;;21.16;41.62
74637;BME280;63141;54.616;39.754;2023-05-18T10:40:26;100686.19;;;21.15;41.57
74637;BME280;63141;54.616;39.754;2023-05-18T10:43:40;100682.69;;;21.13;41.69
74637;BME280;63141;54.616;39.754;2023-05-18T10:46:49;100683.63;;;21.12;41.90
74637;BME280;63141;54.616;39.754;2023-05-18T10:49:50;100676.56;;;21.11;41.98
74637;BME280;63141;54.616;39.754;2023-05-18T10:52:58;100681.88;;;21.11;42.34
74637;BME280;63141;54.616;39.754;2023-05-18T10:56:00;100684.50;;;21.11;42.08
74637;BME280;63141;54.616;39.754;2023-05-18T10:59:15;100678.34;;;21.10;41.90
74637;BME280;63141;54.616;39.754;2023-05-18T11:02:25;100677.50;;;21.10;41.86
74637;BME280;63141;54.616;39.754;2023-05-18T11:05:30;100679.25;;;21.09;42.05
74637;BME280;63141;54.616;39.754;2023-05-18T11:08:47;100674.91;;;21.07;42.14
74637;BME280;63141;54.616;39.754;2023-05-18T11:12:03;100669.59;;;21.07;42.09
74637;BME280;63141;54.616;39.754;2023-05-18T11:19:09;100671.44;;;21.05;42.11
74637;BME280;63141;54.616;39.754;2023-05-18T11:22:19;100666.13;;;21.05;41.99
74637;BME280;63141;54.616;39.754;2023-05-18T11:28:54;100661.72;;;21.05;42.07
74637;BME280;63141;54.616;39.754;2023-05-18T11:32:01;100659.09;;;21.04;42.00
74637;BME280;63141;54.616;39.754;2023-05-18T11:35:06;100654.66;;;21.04;41.62
74637;BME280;63141;54.616;39.754;2023-05-18T11:38:16;100658.25;;;21.03;41.64
74637;BME280;63141;54.616;39.754;2023-05-18T11:41:37;100661.75;;;21.04;41.89
74637;BME280;63141;54.616;39.754;2023-05-18T11:44:39;100658.25;;;21.03;42.03
74637;BME280;63141;54.616;39.754;2023-05-18T11:47:41;100653.84;;;21.02;41.96
74637;BME280;63141;54.616;39.754;2023-05-18T11:50:48;100658.25;;;21.03;42.19
74637;BME280;63141;54.616;39.754;2023-05-18T11:53:49;100656.50;;;21.02;41.88
74637;BME280;63141;54.616;39.754;2023-05-18T11:56:54;100645.97;;;21.01;41.81
74637;BME280;63141;54.616;39.754;2023-05-18T11:59:57;100653.91;;;21.01;41.99
74637;BME280;63141;54.616;39.754;2023-05-18T12:03:04;100656.50;;;21.02;42.10
74637;BME280;63141;54.616;39.754;2023-05-18T12:06:06;100653.81;;;21.04;42.08
74637;BME280;63141;54.616;39.754;2023-05-18T12:09:17;100656.44;;;21.05;42.00
74637;BME280;63141;54.616;39.754;2023-05-18T12:12:18;100657.28;;;21.06;41.72
74637;BME280;63141;54.616;39.754;2023-05-18T12:15:26;100652.00;;;21.06;41.74
74637;BME280;63141;54.616;39.754;2023-05-18T12:18:37;100657.28;;;21.06;41.93
74637;BME280;63141;54.616;39.754;2023-05-18T12:21:39;100646.69;;;21.06;41.73
74637;BME280;63141;54.616;39.754;2023-05-18T12:24:41;100649.25;;;21.09;41.27
74637;BME280;63141;54.616;39.754;2023-05-18T12:27:46;100651.78;;;21.13;40.98
74637;BME280;63141;54.616;39.754;2023-05-18T12:31:04;100648.97;;;21.20;40.61
74637;BME280;63141;54.616;39.754;2023-05-18T12:34:08;100647.91;;;21.25;40.23
74637;BME280;63141;54.616;39.754;2023-05-18T12:37:23;100648.72;;;21.27;40.22
74637;BME280;63141;54.616;39.754;2023-05-18T12:40:25;100646.94;;;21.28;39.81
74637;BME280;63141;54.616;39.754;2023-05-18T12:43:32;100645.97;;;21.32;39.76
74637;BME280;63141;54.616;39.754;2023-05-18T12:46:36;100644.94;;;21.38;39.84
74637;BME280;63141;54.616;39.754;2023-05-18T12:49:42;100644.00;;;21.39;39.68
74637;BME280;63141;54.616;39.754;2023-05-18T12:52:50;100637.03;;;21.34;40.00
74637;BME280;63141;54.616;39.754;2023-05-18T12:55:58;100640.72;;;21.30;39.86
74637;BME280;63141;54.616;39.754;2023-05-18T12:59:04;100639.06;;;21.26;39.89
74637;BME280;63141;54.616;39.754;2023-05-18T13:02:35;100638.28;;;21.23;40.14
74637;BME280;63141;54.616;39.754;2023-05-18T13:05:40;100630.44;;;21.18;40.55
74637;BME280;63141;54.616;39.754;2023-05-18T13:08:54;100624.28;;;21.18;40.37
74637;BME280;63141;54.616;39.754;2023-05-18T13:12:04;100630.56;;;21.15;40.49
74637;BME280;63141;54.616;39.754;2023-05-18T13:15:20;100629.72;;;21.13;40.58
74637;BME280;63141;54.616;39.754;2023-05-18T13:18:28;100635.06;;;21.11;40.85
74637;BME280;63141;54.616;39.754;2023-05-18T13:21:36;100629.81;;;21.10;40.81
74637;BME280;63141;54.616;39.754;2023-05-18T13:24:38;100629.81;;;21.10;40.74
74637;BME280;63141;54.616;39.754;2023-05-18T13:27:55;100623.69;;;21.08;40.88
74637;BME280;63141;54.616;39.754;2023-05-18T13:31:02;100624.59;;;21.07;40.81
74637;BME280;63141;54.616;39.754;2023-05-18T13:34:03;100621.94;;;21.07;40.74
74637;BME280;63141;54.616;39.754;2023-05-18T13:37:10;100621.03;;;21.08;40.68
74637;BME280;63141;54.616;39.754;2023-05-18T13:40:18;100625.50;;;21.06;40.78
74637;BME280;63141;54.616;39.754;2023-05-18T13:43:34;100625.50;;;21.06;40.62
74637;BME280;63141;54.616;39.754;2023-05-18T13:46:39;100621.09;;;21.05;40.91
74637;BME280;63141;54.616;39.754;2023-05-18T13:49:49;100623.75;;;21.05;40.53
74637;BME280;63141;54.616;39.754;2023-05-18T13:53:02;100623.75;;;21.05;40.83
74637;BME280;63141;54.616;39.754;2023-05-18T13:56:11;100616.75;;;21.04;40.82
74637;BME280;63141;54.616;39.754;2023-05-18T13:59:18;100616.75;;;21.04;40.83
74637;BME280;63141;54.616;39.754;2023-05-18T14:02:54;100614.09;;;21.04;40.85
74637;BME280;63141;54.616;39.754;2023-05-18T14:05:59;100615.00;;;21.03;40.79
74637;BME280;63141;54.616;39.754;2023-05-18T14:09:10;100608.81;;;21.02;40.85
74637;BME280;63141;54.616;39.754;2023-05-18T14:12:20;100612.38;;;21.03;40.92
74637;BME280;63141;54.616;39.754;2023-05-18T14:15:24;100618.56;;;21.02;40.93
74637;BME280;63141;54.616;39.754;2023-05-18T14:18:25;100611.53;;;21.01;40.63
74637;BME280;63141;54.616;39.754;2023-05-18T14:21:29;100610.59;;;21.02;40.90
74637;BME280;63141;54.616;39.754;2023-05-18T14:24:41;100608.81;;;21.02;40.56
74637;BME280;63141;54.616;39.754;2023-05-18T14:27:51;100603.59;;;21.01;40.73
74637;BME280;63141;54.616;39.754;2023-05-18T14:30:56;100604.47;;;21.00;40.73
74637;BME280;63141;54.616;39.754;2023-05-18T14:34:02;100596.63;;;20.97;40.80
74637;BME280;63141;54.616;39.754;2023-05-18T14:37:07;100600.97;;;20.99;40.79
74637;BME280;63141;54.616;39.754;2023-05-18T14:40:20;100594.81;;;20.99;40.64
74637;BME280;63141;54.616;39.754;2023-05-18T14:43:24;100599.19;;;21.00;40.78
74637;BME280;63141;54.616;39.754;2023-05-18T14:46:28;100592.16;;;20.99;40.54
74637;BME280;63141;54.616;39.754;2023-05-18T14:49:35;100591.25;;;21.00;40.70
74637;BME280;63141;54.616;39.754;2023-05-18T14:52:45;100587.72;;;20.99;40.57
74637;BME280;63141;54.616;39.754;2023-05-18T14:55:50;100587.72;;;20.99;40.49
74637;BME280;63141;54.616;39.754;2023-05-18T14:59:10;100586.88;;;20.99;40.63
74637;BME280;63141;54.616;39.754;2023-05-18T15:02:22;100586.88;;;20.99;40.65
74637;BME280;63141;54.616;39.754;2023-05-18T15:05:29;100583.31;;;21.00;40.86
74637;BME280;63141;54.616;39.754;2023-05-18T15:08:36;100584.16;;;21.00;40.86
74637;BME280;63141;54.616;39.754;2023-05-18T15:11:43;100577.97;;;21.01;41.15
74637;BME280;63141;54.616;39.754;2023-05-18T15:14:53;100581.47;;;21.02;41.26
74637;BME280;63141;54.616;39.754;2023-05-18T15:17:54;100576.09;;;21.05;41.66
74637;BME280;63141;54.616;39.754;2023-05-18T15:21:01;100581.31;;;21.08;43.09
74637;BME280;63141;54.616;39.754;2023-05-18T15:24:05;100574.19;;;21.10;44.18
74637;BME280;63141;54.616;39.754;2023-05-18T15:27:16;100574.09;;;21.13;45.29
74637;BME280;63141;54.616;39.754;2023-05-18T15:30:20;100572.28;;;21.15;47.14
74637;BME280;63141;54.616;39.754;2023-05-18T15:33:24;100566.97;;;21.15;48.10
74637;BME280;63141;54.616;39.754;2023-05-18T15:36:25;100576.66;;;21.16;47.78
74637;BME280;63141;54.616;39.754;2023-05-18T15:39:37;100583.69;;;21.17;46.83
74637;BME280;63141;54.616;39.754;2023-05-18T15:42:43;100574.00;;;21.16;46.13
74637;BME280;63141;54.616;39.754;2023-05-18T15:45:47;100573.13;;;21.16;46.30
74637;BME280;63141;54.616;39.754;2023-05-18T15:48:49;100572.28;;;21.15;46.34
74637;BME280;63141;54.616;39.754;2023-05-18T15:51:56;100574.94;;;21.15;46.03
74637;BME280;63141;54.616;39.754;2023-05-18T15:55:03;100570.53;;;21.14;46.03
74637;BME280;63141;54.616;39.754;2023-05-18T15:58:04;100574.09;;;21.13;45.96
74637;BME280;63141;54.616;39.754;2023-05-18T16:01:11;100568.81;;;21.13;46.05
74637;BME280;63141;54.616;39.754;2023-05-18T16:04:27;100578.53;;;21.12;46.64
74637;BME280;63141;54.616;39.754;2023-05-18T16:07:51;100580.31;;;21.12;47.78
74637;BME280;63141;54.616;39.754;2023-05-18T16:10:55;100574.09;;;21.13;48.92
74637;BME280;63141;54.616;39.754;2023-05-18T16:14:00;100571.44;;;21.13;49.93
74637;BME280;63141;54.616;39.754;2023-05-18T16:17:05;100570.53;;;21.14;50.55
74637;BME280;63141;54.616;39.754;2023-05-18T16:20:29;100573.16;;;21.14;51.68